Eagle Rock, Virginia
Current Conditions -  °F | °C
As of 9:10 AM on Saturday 22 Nov 2014 (Local Time) from KHSP Reporting Station
Clear Clear  
Wind Chill: 33°   Ceiling: Unl
Heat Index: 41°   Visibility: 10mi
Dew Point:   Wind: 15mph
Humidity: 22%   Direction: 250°WSW
Pressure: 30.34"   Gusts: NA
Location:  37.64°N, 79.8°W
Report Text: KHSP 221410Z AUTO 25013KT 10SM CLR 05/M15 A3034 RMK AO2 T00501153
Loading
Personal Weather Stations






























Interactive Weather Map New forecast layout! Learn more

10-Day Weather Forecast

Advertisements
Track Severe Weather on mobile